sensor_id;sensor_type;location;lat;lon;timestamp;pressure;altitude;pressure_sealevel;temperature;humidity
11712;BME280;5912;51.034;6.984;2023-03-24T00:01:20;56410.41;;;-142.13;64.20
11712;BME280;5912;51.034;6.984;2023-03-24T00:03:46;56404.41;;;-142.13;64.78
11712;BME280;5912;51.034;6.984;2023-03-24T00:06:13;56406.41;;;-142.13;64.88
11712;BME280;5912;51.034;6.984;2023-03-24T00:08:39;56412.41;;;-142.13;64.61
11712;BME280;5912;51.034;6.984;2023-03-24T00:11:10;56410.41;;;-142.13;64.39
11712;BME280;5912;51.034;6.984;2023-03-24T00:13:37;56412.41;;;-142.13;64.80
11712;BME280;5912;51.034;6.984;2023-03-24T00:16:13;56390.38;;;-142.13;64.90
11712;BME280;5912;51.034;6.984;2023-03-24T00:18:40;56400.41;;;-142.13;64.38
11712;BME280;5912;51.034;6.984;2023-03-24T00:21:06;56400.41;;;-142.13;64.38
11712;BME280;5912;51.034;6.984;2023-03-24T00:23:33;56396.41;;;-142.13;64.64
11712;BME280;5912;51.034;6.984;2023-03-24T00:26:01;56406.41;;;-142.13;63.67
11712;BME280;5912;51.034;6.984;2023-03-24T00:28:31;56432.44;;;-142.13;63.68
11712;BME280;5912;51.034;6.984;2023-03-24T00:30:57;56416.44;;;-142.13;63.93
11712;BME280;5912;51.034;6.984;2023-03-24T00:33:23;56402.41;;;-142.13;63.74
11712;BME280;5912;51.034;6.984;2023-03-24T00:35:49;56424.44;;;-142.13;64.16
11712;BME280;5912;51.034;6.984;2023-03-24T00:38:14;56422.44;;;-142.13;64.58
11712;BME280;5912;51.034;6.984;2023-03-24T00:40:46;56412.41;;;-142.13;64.36
11712;BME280;5912;51.034;6.984;2023-03-24T00:43:12;56396.41;;;-142.13;64.45
11712;BME280;5912;51.034;6.984;2023-03-24T00:45:38;56406.41;;;-142.13;64.87
11712;BME280;5912;51.034;6.984;2023-03-24T00:48:10;56400.41;;;-142.13;64.95
11712;BME280;5912;51.034;6.984;2023-03-24T00:50:35;56380.38;;;-142.13;65.22
11712;BME280;5912;51.034;6.984;2023-03-24T00:53:01;56428.44;;;-142.13;65.57
11712;BME280;5912;51.034;6.984;2023-03-24T00:55:26;56396.41;;;-142.13;65.89
11712;BME280;5912;51.034;6.984;2023-03-24T00:57:52;56390.38;;;-142.13;66.50
11712;BME280;5912;51.034;6.984;2023-03-24T01:00:22;56394.38;;;-142.13;65.95
11712;BME280;5912;51.034;6.984;2023-03-24T01:02:50;56408.41;;;-142.13;66.59
11712;BME280;5912;51.034;6.984;2023-03-24T01:05:21;56398.41;;;-142.13;66.96
11712;BME280;5912;51.034;6.984;2023-03-24T01:07:47;56396.41;;;-142.13;67.06
11712;BME280;5912;51.034;6.984;2023-03-24T01:10:17;56394.38;;;-142.13;67.05
11712;BME280;5912;51.034;6.984;2023-03-24T01:12:44;56388.38;;;-142.13;67.19
11712;BME280;5912;51.034;6.984;2023-03-24T01:15:16;56422.44;;;-142.13;67.66
11712;BME280;5912;51.034;6.984;2023-03-24T01:17:42;56414.41;;;-142.13;67.55
11712;BME280;5912;51.034;6.984;2023-03-24T01:20:08;56440.47;;;-142.13;67.83
11712;BME280;5912;51.034;6.984;2023-03-24T01:22:37;56424.44;;;-142.13;67.97
11712;BME280;5912;51.034;6.984;2023-03-24T01:25:12;56402.41;;;-142.13;67.99
11712;BME280;5912;51.034;6.984;2023-03-24T01:27:38;56430.44;;;-142.13;67.84
11712;BME280;5912;51.034;6.984;2023-03-24T01:30:04;56438.47;;;-142.13;68.14
11712;BME280;5912;51.034;6.984;2023-03-24T01:32:30;56440.47;;;-142.13;68.07
11712;BME280;5912;51.034;6.984;2023-03-24T01:35:11;56424.44;;;-142.13;68.34
11712;BME280;5912;51.034;6.984;2023-03-24T01:37:39;56428.44;;;-142.13;68.38
11712;BME280;5912;51.034;6.984;2023-03-24T01:40:06;56424.44;;;-142.13;68.23
11712;BME280;5912;51.034;6.984;2023-03-24T01:42:36;56428.44;;;-142.13;68.18
11712;BME280;5912;51.034;6.984;2023-03-24T01:48:08;56408.41;;;-142.13;68.68
11712;BME280;5912;51.034;6.984;2023-03-24T01:50:35;56392.38;;;-142.13;68.59
11712;BME280;5912;51.034;6.984;2023-03-24T01:53:01;56416.44;;;-142.13;68.12
11712;BME280;5912;51.034;6.984;2023-03-24T01:55:28;56676.84;;;-142.13;67.85
11712;BME280;5912;51.034;6.984;2023-03-24T01:57:58;56424.44;;;-142.13;67.73
11712;BME280;5912;51.034;6.984;2023-03-24T02:00:25;56450.47;;;-142.13;67.21
11712;BME280;5912;51.034;6.984;2023-03-24T02:02:57;56386.38;;;-142.13;66.78
11712;BME280;5912;51.034;6.984;2023-03-24T02:05:35;56410.41;;;-142.13;65.98
11712;BME280;5912;51.034;6.984;2023-03-24T02:08:15;56410.41;;;-142.13;66.03
11712;BME280;5912;51.034;6.984;2023-03-24T02:10:42;56382.38;;;-142.13;65.49
11712;BME280;5912;51.034;6.984;2023-03-24T02:13:08;56404.41;;;-142.13;65.11
11712;BME280;5912;51.034;6.984;2023-03-24T02:15:41;56412.41;;;-142.13;64.87
11712;BME280;5912;51.034;6.984;2023-03-24T02:18:18;56368.34;;;-142.13;64.69
11712;BME280;5912;51.034;6.984;2023-03-24T02:29:21;56390.38;;;-142.13;65.33
11712;BME280;5912;51.034;6.984;2023-03-24T02:37:50;56404.41;;;-142.13;64.75
11712;BME280;5912;51.034;6.984;2023-03-24T02:48:57;56382.38;;;-142.13;63.55
11712;BME280;5912;51.034;6.984;2023-03-24T02:54:14;56428.44;;;-142.13;63.13
11712;BME280;5912;51.034;6.984;2023-03-24T02:56:46;56366.34;;;-142.13;63.37
11712;BME280;5912;51.034;6.984;2023-03-24T03:02:18;56326.28;;;-142.13;63.04
11712;BME280;5912;51.034;6.984;2023-03-24T03:04:48;56388.38;;;-142.13;62.90
11712;BME280;5912;51.034;6.984;2023-03-24T03:07:20;56378.38;;;-142.13;62.78
11712;BME280;5912;51.034;6.984;2023-03-24T03:09:53;56388.38;;;-142.13;62.61
11712;BME280;5912;51.034;6.984;2023-03-24T03:12:21;56392.38;;;-142.13;62.41
11712;BME280;5912;51.034;6.984;2023-03-24T03:15:00;56354.31;;;-142.13;61.97
11712;BME280;5912;51.034;6.984;2023-03-24T03:17:31;56384.38;;;-142.13;61.80
11712;BME280;5912;51.034;6.984;2023-03-24T03:20:08;56380.38;;;-142.13;61.65
11712;BME280;5912;51.034;6.984;2023-03-24T03:22:44;56376.34;;;-142.13;61.52
11712;BME280;5912;51.034;6.984;2023-03-24T03:25:12;56348.31;;;-142.13;61.93
11712;BME280;5912;51.034;6.984;2023-03-24T03:27:41;56358.34;;;-142.13;62.39
11712;BME280;5912;51.034;6.984;2023-03-24T03:30:15;56334.28;;;-142.13;62.59
11712;BME280;5912;51.034;6.984;2023-03-24T03:32:53;56376.34;;;-142.13;62.61
11712;BME280;5912;51.034;6.984;2023-03-24T03:35:24;56344.31;;;-142.13;62.82
11712;BME280;5912;51.034;6.984;2023-03-24T03:40:24;56380.38;;;-142.13;62.75
11712;BME280;5912;51.034;6.984;2023-03-24T03:42:51;56382.38;;;-142.13;62.89
11712;BME280;5912;51.034;6.984;2023-03-24T03:45:16;56390.38;;;-142.13;63.05
11712;BME280;5912;51.034;6.984;2023-03-24T03:47:42;56370.34;;;-142.13;62.87
11712;BME280;5912;51.034;6.984;2023-03-24T03:50:08;56366.34;;;-142.13;63.01
11712;BME280;5912;51.034;6.984;2023-03-24T03:52:36;56378.38;;;-142.13;63.09
11712;BME280;5912;51.034;6.984;2023-03-24T03:55:04;56376.34;;;-142.13;63.08
11712;BME280;5912;51.034;6.984;2023-03-24T03:57:31;56368.34;;;-142.13;62.85
11712;BME280;5912;51.034;6.984;2023-03-24T03:59:57;56386.38;;;-142.13;62.87
11712;BME280;5912;51.034;6.984;2023-03-24T04:05:45;56352.31;;;-142.13;62.85
11712;BME280;5912;51.034;6.984;2023-03-24T04:19:32;56354.31;;;-142.13;62.50
11712;BME280;5912;51.034;6.984;2023-03-24T04:22:09;56370.34;;;-142.13;62.68
11712;BME280;5912;51.034;6.984;2023-03-24T04:25:08;56384.38;;;-142.13;62.59
11712;BME280;5912;51.034;6.984;2023-03-24T04:27:48;56368.34;;;-142.13;62.63
11712;BME280;5912;51.034;6.984;2023-03-24T04:30:47;56354.31;;;-142.13;62.35
11712;BME280;5912;51.034;6.984;2023-03-24T04:33:19;56382.38;;;-142.13;62.47
11712;BME280;5912;51.034;6.984;2023-03-24T04:36:03;56366.34;;;-142.13;62.36
11712;BME280;5912;51.034;6.984;2023-03-24T04:38:31;56378.38;;;-142.13;62.78
11712;BME280;5912;51.034;6.984;2023-03-24T04:41:01;56372.34;;;-142.13;62.31
11712;BME280;5912;51.034;6.984;2023-03-24T04:43:30;56356.31;;;-142.13;62.23
11712;BME280;5912;51.034;6.984;2023-03-24T04:46:01;56390.38;;;-142.13;62.31
11712;BME280;5912;51.034;6.984;2023-03-24T04:48:28;56396.41;;;-142.13;63.21
11712;BME280;5912;51.034;6.984;2023-03-24T04:51:01;56368.34;;;-142.13;63.67
11712;BME280;5912;51.034;6.984;2023-03-24T04:53:28;56388.38;;;-142.13;63.81
11712;BME280;5912;51.034;6.984;2023-03-24T04:58:24;56378.38;;;-142.13;64.14
11712;BME280;5912;51.034;6.984;2023-03-24T05:00:50;56384.38;;;-142.13;65.05
11712;BME280;5912;51.034;6.984;2023-03-24T05:03:16;56382.38;;;-142.13;64.40
11712;BME280;5912;51.034;6.984;2023-03-24T05:05:44;56388.38;;;-142.13;64.60
11712;BME280;5912;51.034;6.984;2023-03-24T05:08:11;56420.44;;;-142.13;64.77
11712;BME280;5912;51.034;6.984;2023-03-24T05:10:37;56400.41;;;-142.13;65.31
11712;BME280;5912;51.034;6.984;2023-03-24T05:13:03;56416.44;;;-142.13;65.51
11712;BME280;5912;51.034;6.984;2023-03-24T05:15:29;56430.44;;;-142.13;65.65
11712;BME280;5912;51.034;6.984;2023-03-24T05:17:54;56382.38;;;-142.13;65.76
11712;BME280;5912;51.034;6.984;2023-03-24T05:20:20;56402.41;;;-142.13;65.65
11712;BME280;5912;51.034;6.984;2023-03-24T05:22:46;56426.44;;;-142.13;65.81
11712;BME280;5912;51.034;6.984;2023-03-24T05:25:12;56414.41;;;-142.13;66.21
11712;BME280;5912;51.034;6.984;2023-03-24T05:27:38;56424.44;;;-142.13;66.11
11712;BME280;5912;51.034;6.984;2023-03-24T05:30:04;56420.44;;;-142.13;66.16
11712;BME280;5912;51.034;6.984;2023-03-24T05:32:31;56406.41;;;-142.13;66.19
11712;BME280;5912;51.034;6.984;2023-03-24T05:34:56;56438.47;;;-142.13;66.29
11712;BME280;5912;51.034;6.984;2023-03-24T05:37:22;56420.44;;;-142.13;66.44
11712;BME280;5912;51.034;6.984;2023-03-24T05:39:47;56422.44;;;-142.13;66.39
11712;BME280;5912;51.034;6.984;2023-03-24T05:42:15;56430.44;;;-142.13;66.40
11712;BME280;5912;51.034;6.984;2023-03-24T05:44:41;56428.44;;;-142.13;66.58
11712;BME280;5912;51.034;6.984;2023-03-24T05:47:06;56400.41;;;-142.13;66.66
11712;BME280;5912;51.034;6.984;2023-03-24T05:49:31;56440.47;;;-142.13;64.80
11712;BME280;5912;51.034;6.984;2023-03-24T05:51:57;56428.44;;;-142.13;64.08
11712;BME280;5912;51.034;6.984;2023-03-24T05:54:22;56422.44;;;-142.13;62.85
11712;BME280;5912;51.034;6.984;2023-03-24T05:56:48;56424.44;;;-142.13;62.16
11712;BME280;5912;51.034;6.984;2023-03-24T05:59:13;56440.47;;;-142.13;60.25
11712;BME280;5912;51.034;6.984;2023-03-24T06:01:39;56380.38;;;-142.13;60.77
11712;BME280;5912;51.034;6.984;2023-03-24T06:04:07;56452.47;;;-142.13;61.23
11712;BME280;5912;51.034;6.984;2023-03-24T06:06:32;56436.47;;;-142.13;61.81
11712;BME280;5912;51.034;6.984;2023-03-24T06:08:57;56482.53;;;-142.13;61.81
11712;BME280;5912;51.034;6.984;2023-03-24T06:11:26;56426.44;;;-142.13;61.43
11712;BME280;5912;51.034;6.984;2023-03-24T06:13:52;56444.47;;;-142.13;61.30
11712;BME280;5912;51.034;6.984;2023-03-24T06:16:17;56450.47;;;-142.13;61.20
11712;BME280;5912;51.034;6.984;2023-03-24T06:18:43;56446.47;;;-142.13;61.57
11712;BME280;5912;51.034;6.984;2023-03-24T06:21:44;56468.50;;;-142.13;62.17
11712;BME280;5912;51.034;6.984;2023-03-24T06:24:14;56452.47;;;-142.13;62.47
11712;BME280;5912;51.034;6.984;2023-03-24T06:26:40;56388.38;;;-142.13;63.07
11712;BME280;5912;51.034;6.984;2023-03-24T06:29:15;56428.44;;;-142.13;63.43
11712;BME280;5912;51.034;6.984;2023-03-24T06:31:42;56448.47;;;-142.13;63.91
11712;BME280;5912;51.034;6.984;2023-03-24T06:34:08;56438.47;;;-142.13;63.46
11712;BME280;5912;51.034;6.984;2023-03-24T06:36:33;56424.44;;;-142.13;63.38
11712;BME280;5912;51.034;6.984;2023-03-24T06:38:59;56438.47;;;-142.13;62.73
11712;BME280;5912;51.034;6.984;2023-03-24T06:41:26;56444.47;;;-142.13;62.24
11712;BME280;5912;51.034;6.984;2023-03-24T06:43:52;56440.47;;;-142.13;62.09
11712;BME280;5912;51.034;6.984;2023-03-24T06:46:17;56448.47;;;-142.13;62.13
11712;BME280;5912;51.034;6.984;2023-03-24T06:48:42;56422.44;;;-142.13;61.80
11712;BME280;5912;51.034;6.984;2023-03-24T06:51:07;56448.47;;;-142.13;60.77
11712;BME280;5912;51.034;6.984;2023-03-24T06:53:33;56448.47;;;-142.13;60.84
11712;BME280;5912;51.034;6.984;2023-03-24T06:55:58;56450.47;;;-142.13;61.01
11712;BME280;5912;51.034;6.984;2023-03-24T06:58:23;56456.50;;;-142.13;61.36
11712;BME280;5912;51.034;6.984;2023-03-24T07:00:49;56452.47;;;-142.13;60.79
11712;BME280;5912;51.034;6.984;2023-03-24T07:03:15;56416.44;;;-142.13;59.45
11712;BME280;5912;51.034;6.984;2023-03-24T07:05:42;56440.47;;;-142.13;59.30
11712;BME280;5912;51.034;6.984;2023-03-24T07:08:09;56424.44;;;-142.13;58.46
11712;BME280;5912;51.034;6.984;2023-03-24T07:10:37;56444.47;;;-142.13;58.53
11712;BME280;5912;51.034;6.984;2023-03-24T07:13:03;56430.44;;;-142.13;58.34
11712;BME280;5912;51.034;6.984;2023-03-24T07:15:29;56414.41;;;-142.13;57.62
11712;BME280;5912;51.034;6.984;2023-03-24T07:17:54;56452.47;;;-142.13;57.73
11712;BME280;5912;51.034;6.984;2023-03-24T07:20:20;56462.50;;;-142.13;57.13
11712;BME280;5912;51.034;6.984;2023-03-24T07:22:55;56464.50;;;-142.13;57.46
11712;BME280;5912;51.034;6.984;2023-03-24T07:25:21;56462.50;;;-142.13;58.07
11712;BME280;5912;51.034;6.984;2023-03-24T07:27:47;56432.44;;;-142.13;57.28
11712;BME280;5912;51.034;6.984;2023-03-24T07:30:13;56490.53;;;-142.13;57.10
11712;BME280;5912;51.034;6.984;2023-03-24T07:32:39;56434.44;;;-142.13;56.60
11712;BME280;5912;51.034;6.984;2023-03-24T07:35:09;56456.50;;;-142.13;56.63
11712;BME280;5912;51.034;6.984;2023-03-24T07:37:35;56416.44;;;-142.13;57.18
11712;BME280;5912;51.034;6.984;2023-03-24T07:40:01;56452.47;;;-142.13;57.12
11712;BME280;5912;51.034;6.984;2023-03-24T07:42:26;56432.44;;;-142.13;56.96
11712;BME280;5912;51.034;6.984;2023-03-24T07:44:51;56436.47;;;-142.13;56.84
11712;BME280;5912;51.034;6.984;2023-03-24T07:47:17;56432.44;;;-142.13;56.40
11712;BME280;5912;51.034;6.984;2023-03-24T07:49:42;56402.41;;;-142.13;55.25
11712;BME280;5912;51.034;6.984;2023-03-24T07:52:07;56388.38;;;-142.13;55.18
11712;BME280;5912;51.034;6.984;2023-03-24T07:54:33;56428.44;;;-142.13;55.00
11712;BME280;5912;51.034;6.984;2023-03-24T07:56:58;56414.41;;;-142.13;54.46
11712;BME280;5912;51.034;6.984;2023-03-24T07:59:24;56414.41;;;-142.13;55.06
11712;BME280;5912;51.034;6.984;2023-03-24T08:01:50;56378.38;;;-142.13;53.61
11712;BME280;5912;51.034;6.984;2023-03-24T08:04:15;56384.38;;;-142.13;53.10
11712;BME280;5912;51.034;6.984;2023-03-24T08:06:44;56396.41;;;-142.13;52.91
11712;BME280;5912;51.034;6.984;2023-03-24T08:09:10;56410.41;;;-142.13;53.31
11712;BME280;5912;51.034;6.984;2023-03-24T08:11:36;56410.41;;;-142.13;53.42
11712;BME280;5912;51.034;6.984;2023-03-24T08:14:02;56420.44;;;-142.13;52.29
11712;BME280;5912;51.034;6.984;2023-03-24T08:16:27;56394.38;;;-142.13;52.06
11712;BME280;5912;51.034;6.984;2023-03-24T08:18:53;56410.41;;;-142.13;51.94
11712;BME280;5912;51.034;6.984;2023-03-24T08:21:22;56400.41;;;-142.13;50.56
11712;BME280;5912;51.034;6.984;2023-03-24T08:23:47;56420.44;;;-142.13;50.68
11712;BME280;5912;51.034;6.984;2023-03-24T08:26:13;56384.38;;;-142.13;50.53
11712;BME280;5912;51.034;6.984;2023-03-24T08:28:38;56420.44;;;-142.13;49.78
11712;BME280;5912;51.034;6.984;2023-03-24T08:31:03;56380.38;;;-142.13;50.72
11712;BME280;5912;51.034;6.984;2023-03-24T08:33:29;56320.28;;;-142.13;48.21
11712;BME280;5912;51.034;6.984;2023-03-24T08:35:54;56326.28;;;-142.13;47.33
11712;BME280;5912;51.034;6.984;2023-03-24T08:38:25;56286.22;;;-142.13;42.31
11712;BME280;5912;51.034;6.984;2023-03-24T08:41:01;56276.19;;;-142.13;41.13
11712;BME280;5912;51.034;6.984;2023-03-24T08:43:31;56238.13;;;-142.13;39.77
11712;BME280;5912;51.034;6.984;2023-03-24T08:45:58;56250.16;;;-142.13;40.27
11712;BME280;5912;51.034;6.984;2023-03-24T08:48:24;56264.19;;;-142.13;41.05
11712;BME280;5912;51.034;6.984;2023-03-24T08:50:50;56284.22;;;-142.13;40.91
11712;BME280;5912;51.034;6.984;2023-03-24T08:53:15;56302.25;;;-142.13;41.05
11712;BME280;5912;51.034;6.984;2023-03-24T08:55:41;56298.22;;;-142.13;41.20
11712;BME280;5912;51.034;6.984;2023-03-24T08:58:13;56304.25;;;-142.13;42.20
11712;BME280;5912;51.034;6.984;2023-03-24T09:00:39;56330.28;;;-142.13;42.41
11712;BME280;5912;51.034;6.984;2023-03-24T09:03:05;56314.25;;;-142.13;43.29
11712;BME280;5912;51.034;6.984;2023-03-24T09:05:31;56342.31;;;-142.13;43.63
11712;BME280;5912;51.034;6.984;2023-03-24T09:07:56;56360.34;;;-142.13;44.32
11712;BME280;5912;51.034;6.984;2023-03-24T09:10:25;56324.28;;;-142.13;43.73
11712;BME280;5912;51.034;6.984;2023-03-24T09:12:50;56284.22;;;-142.13;43.49
11712;BME280;5912;51.034;6.984;2023-03-24T09:15:16;56300.25;;;-142.13;42.44
11712;BME280;5912;51.034;6.984;2023-03-24T09:17:42;56224.13;;;-142.13;41.94
11712;BME280;5912;51.034;6.984;2023-03-24T09:20:10;56276.19;;;-142.13;40.96
11712;BME280;5912;51.034;6.984;2023-03-24T09:22:41;56248.16;;;-142.13;41.35
11712;BME280;5912;51.034;6.984;2023-03-24T09:25:08;56266.19;;;-142.13;40.37
11712;BME280;5912;51.034;6.984;2023-03-24T09:27:34;56264.19;;;-142.13;39.63
11712;BME280;5912;51.034;6.984;2023-03-24T09:29:59;56264.19;;;-142.13;40.29
11712;BME280;5912;51.034;6.984;2023-03-24T09:32:25;56260.19;;;-142.13;40.29
11712;BME280;5912;51.034;6.984;2023-03-24T09:34:50;56204.09;;;-142.13;39.63
11712;BME280;5912;51.034;6.984;2023-03-24T09:37:16;56244.16;;;-142.13;37.29
11712;BME280;5912;51.034;6.984;2023-03-24T09:39:41;56238.13;;;-142.13;37.31
11712;BME280;5912;51.034;6.984;2023-03-24T09:42:17;56200.09;;;-142.13;37.36
11712;BME280;5912;51.034;6.984;2023-03-24T09:44:46;56190.06;;;-142.13;36.41
11712;BME280;5912;51.034;6.984;2023-03-24T09:47:15;56168.03;;;-142.13;35.88
11712;BME280;5912;51.034;6.984;2023-03-24T09:49:47;56148.00;;;-142.13;35.35
11712;BME280;5912;51.034;6.984;2023-03-24T09:52:13;56148.00;;;-142.13;34.53
11712;BME280;5912;51.034;6.984;2023-03-24T09:54:53;56144.00;;;-142.13;33.79
11712;BME280;5912;51.034;6.984;2023-03-24T09:57:22;56140.00;;;-142.13;34.32
11712;BME280;5912;51.034;6.984;2023-03-24T09:59:50;56142.00;;;-142.13;34.25
11712;BME280;5912;51.034;6.984;2023-03-24T10:02:18;56142.00;;;-142.13;35.18
11712;BME280;5912;51.034;6.984;2023-03-24T10:04:44;56192.06;;;-142.13;34.59
11712;BME280;5912;51.034;6.984;2023-03-24T10:07:33;56184.06;;;-142.13;35.60
11712;BME280;5912;51.034;6.984;2023-03-24T10:10:07;56200.09;;;-142.13;35.96
11712;BME280;5912;51.034;6.984;2023-03-24T10:12:46;56174.03;;;-142.13;35.69
11712;BME280;5912;51.034;6.984;2023-03-24T10:17:58;56170.03;;;-142.13;33.53
11712;BME280;5912;51.034;6.984;2023-03-24T10:20:54;56135.97;;;-142.13;33.01
11712;BME280;5912;51.034;6.984;2023-03-24T10:23:41;56119.97;;;-142.13;32.87
11712;BME280;5912;51.034;6.984;2023-03-24T10:26:41;56103.94;;;-142.13;32.50
11712;BME280;5912;51.034;6.984;2023-03-24T10:31:57;56087.91;;;-142.13;31.41
11712;BME280;5912;51.034;6.984;2023-03-24T10:34:27;56095.91;;;-142.13;31.66
11712;BME280;5912;51.034;6.984;2023-03-24T10:36:56;56119.97;;;-142.13;32.28
11712;BME280;5912;51.034;6.984;2023-03-24T10:39:22;56125.97;;;-142.13;33.45
11712;BME280;5912;51.034;6.984;2023-03-24T10:41:48;56174.03;;;-142.13;34.42
11712;BME280;5912;51.034;6.984;2023-03-24T10:44:16;56158.00;;;-142.13;34.52
11712;BME280;5912;51.034;6.984;2023-03-24T10:46:47;56135.97;;;-142.13;32.41
11712;BME280;5912;51.034;6.984;2023-03-24T10:49:18;56091.91;;;-142.13;31.68
11712;BME280;5912;51.034;6.984;2023-03-24T10:51:54;56091.91;;;-142.13;31.31
11712;BME280;5912;51.034;6.984;2023-03-24T10:54:26;56063.88;;;-142.13;31.34
11712;BME280;5912;51.034;6.984;2023-03-24T10:59:30;56027.81;;;-142.13;29.69
11712;BME280;5912;51.034;6.984;2023-03-24T11:04:39;55995.78;;;-142.13;29.39
11712;BME280;5912;51.034;6.984;2023-03-24T11:09:44;56039.84;;;-142.13;28.77
11712;BME280;5912;51.034;6.984;2023-03-24T11:12:20;56069.88;;;-142.13;29.24
11712;BME280;5912;51.034;6.984;2023-03-24T11:14:46;56071.88;;;-142.13;29.99
11712;BME280;5912;51.034;6.984;2023-03-24T11:17:13;56125.97;;;-142.13;30.26
11712;BME280;5912;51.034;6.984;2023-03-24T11:19:50;56103.94;;;-142.13;31.27
11712;BME280;5912;51.034;6.984;2023-03-24T11:22:16;56168.03;;;-142.13;32.04
11712;BME280;5912;51.034;6.984;2023-03-24T11:24:42;56137.97;;;-142.13;32.07
11712;BME280;5912;51.034;6.984;2023-03-24T11:27:12;56156.00;;;-142.13;31.97
11712;BME280;5912;51.034;6.984;2023-03-24T11:29:41;56142.00;;;-142.13;31.91
11712;BME280;5912;51.034;6.984;2023-03-24T11:32:25;56164.03;;;-142.13;32.21
11712;BME280;5912;51.034;6.984;2023-03-24T11:35:02;56198.06;;;-142.13;32.87
11712;BME280;5912;51.034;6.984;2023-03-24T11:37:33;56212.09;;;-142.13;34.07
11712;BME280;5912;51.034;6.984;2023-03-24T11:42:47;56230.13;;;-142.13;35.47
11712;BME280;5912;51.034;6.984;2023-03-24T11:45:20;56288.22;;;-142.13;35.98
11712;BME280;5912;51.034;6.984;2023-03-24T11:47:49;56228.13;;;-142.13;35.83
11712;BME280;5912;51.034;6.984;2023-03-24T11:50:22;56238.13;;;-142.13;36.40
11712;BME280;5912;51.034;6.984;2023-03-24T11:52:51;56236.13;;;-142.13;36.28
11712;BME280;5912;51.034;6.984;2023-03-24T12:09:26;56174.03;;;-142.13;33.78
11712;BME280;5912;51.034;6.984;2023-03-24T12:17:41;56186.06;;;-142.13;33.88
11712;BME280;5912;51.034;6.984;2023-03-24T12:20:22;56176.03;;;-142.13;33.75
11712;BME280;5912;51.034;6.984;2023-03-24T12:23:06;56178.03;;;-142.13;33.93
11712;BME280;5912;51.034;6.984;2023-03-24T12:25:38;56182.06;;;-142.13;33.30
11712;BME280;5912;51.034;6.984;2023-03-24T12:39:00;56188.06;;;-142.13;33.36
11712;BME280;5912;51.034;6.984;2023-03-24T12:41:39;56192.06;;;-142.13;32.90
11712;BME280;5912;51.034;6.984;2023-03-24T12:55:54;56218.09;;;-142.13;32.99
11712;BME280;5912;51.034;6.984;2023-03-24T12:58:41;56228.13;;;-142.13;33.14
11712;BME280;5912;51.034;6.984;2023-03-24T13:06:47;56230.13;;;-142.13;33.97
11712;BME280;5912;51.034;6.984;2023-03-24T13:09:41;56236.13;;;-142.13;34.40
11712;BME280;5912;51.034;6.984;2023-03-24T13:12:18;56254.16;;;-142.13;33.94
11712;BME280;5912;51.034;6.984;2023-03-24T13:14:59;56244.16;;;-142.13;34.40
11712;BME280;5912;51.034;6.984;2023-03-24T13:17:40;56238.13;;;-142.13;33.92
11712;BME280;5912;51.034;6.984;2023-03-24T13:20:20;56248.16;;;-142.13;33.27
11712;BME280;5912;51.034;6.984;2023-03-24T13:22:47;56218.09;;;-142.13;33.75
11712;BME280;5912;51.034;6.984;2023-03-24T13:25:35;56228.13;;;-142.13;34.29
11712;BME280;5912;51.034;6.984;2023-03-24T13:28:10;56240.16;;;-142.13;33.59
11712;BME280;5912;51.034;6.984;2023-03-24T13:30:39;56220.13;;;-142.13;33.58
11712;BME280;5912;51.034;6.984;2023-03-24T13:33:24;56216.09;;;-142.13;33.25
11712;BME280;5912;51.034;6.984;2023-03-24T13:38:49;56226.13;;;-142.13;32.81
11712;BME280;5912;51.034;6.984;2023-03-24T13:41:20;56200.09;;;-142.13;33.31
11712;BME280;5912;51.034;6.984;2023-03-24T13:44:01;56204.09;;;-142.13;33.43
11712;BME280;5912;51.034;6.984;2023-03-24T13:46:30;56210.09;;;-142.13;33.66
11712;BME280;5912;51.034;6.984;2023-03-24T13:48:57;56194.06;;;-142.13;33.98
11712;BME280;5912;51.034;6.984;2023-03-24T13:51:31;56160.03;;;-142.13;32.67
11712;BME280;5912;51.034;6.984;2023-03-24T13:54:08;56150.00;;;-142.13;31.07
11712;BME280;5912;51.034;6.984;2023-03-24T13:56:38;56166.03;;;-142.13;30.80
11712;BME280;5912;51.034;6.984;2023-03-24T14:01:39;56188.06;;;-142.13;31.07
11712;BME280;5912;51.034;6.984;2023-03-24T14:04:22;56152.00;;;-142.13;31.05
11712;BME280;5912;51.034;6.984;2023-03-24T14:06:56;56133.97;;;-142.13;30.30
11712;BME280;5912;51.034;6.984;2023-03-24T14:09:30;56184.06;;;-142.13;30.19
11712;BME280;5912;51.034;6.984;2023-03-24T14:14:29;56188.06;;;-142.13;31.26
11712;BME280;5912;51.034;6.984;2023-03-24T14:19:42;56276.19;;;-142.13;36.34
11712;BME280;5912;51.034;6.984;2023-03-24T14:24:58;56276.19;;;-142.13;40.43
11712;BME280;5912;51.034;6.984;2023-03-24T14:27:34;56296.22;;;-142.13;40.49
11712;BME280;5912;51.034;6.984;2023-03-24T14:32:42;56266.19;;;-142.13;40.20
11712;BME280;5912;51.034;6.984;2023-03-24T14:35:40;56296.22;;;-142.13;39.99
11712;BME280;5912;51.034;6.984;2023-03-24T14:40:44;56270.19;;;-142.13;40.68
11712;BME280;5912;51.034;6.984;2023-03-24T14:43:30;56298.22;;;-142.13;40.46
11712;BME280;5912;51.034;6.984;2023-03-24T14:49:21;56302.25;;;-142.13;38.87
11712;BME280;5912;51.034;6.984;2023-03-24T14:52:10;56260.19;;;-142.13;38.50
11712;BME280;5912;51.034;6.984;2023-03-24T14:54:43;56242.16;;;-142.13;37.82
11712;BME280;5912;51.034;6.984;2023-03-24T14:57:28;56198.06;;;-142.13;36.20
11712;BME280;5912;51.034;6.984;2023-03-24T15:00:00;56196.06;;;-142.13;34.52
11712;BME280;5912;51.034;6.984;2023-03-24T15:02:45;56190.06;;;-142.13;33.79
11712;BME280;5912;51.034;6.984;2023-03-24T15:05:29;56228.13;;;-142.13;35.02
11712;BME280;5912;51.034;6.984;2023-03-24T15:10:40;56270.19;;;-142.13;35.29
11712;BME280;5912;51.034;6.984;2023-03-24T15:13:31;56276.19;;;-142.13;36.15
11712;BME280;5912;51.034;6.984;2023-03-24T15:15:58;56278.19;;;-142.13;35.98
11712;BME280;5912;51.034;6.984;2023-03-24T15:18:24;56276.19;;;-142.13;36.51
11712;BME280;5912;51.034;6.984;2023-03-24T15:20:51;56274.19;;;-142.13;36.69
11712;BME280;5912;51.034;6.984;2023-03-24T15:23:22;56288.22;;;-142.13;36.90
11712;BME280;5912;51.034;6.984;2023-03-24T15:25:48;56282.22;;;-142.13;36.95